createdAt,value
2019-04-27T00:00:44.888Z,99.99
2019-04-27T00:01:48.303Z,99.99
2019-04-27T00:02:44.924Z,99.99
2019-04-27T00:03:44.938Z,99.99
2019-04-27T00:04:48.719Z,99.99
2019-04-27T00:05:45.841Z,99.99
2019-04-27T00:06:46.506Z,99.99
2019-04-27T00:07:44.840Z,99.99
2019-04-27T00:08:44.819Z,99.99
2019-04-27T00:09:50.118Z,99.99
2019-04-27T00:10:45.798Z,99.99
2019-04-27T00:11:45.528Z,99.99
2019-04-27T00:12:44.796Z,99.99
2019-04-27T00:13:44.748Z,99.99
2019-04-27T00:14:48.450Z,99.99
2019-04-27T00:15:45.733Z,99.99
2019-04-27T00:16:50.580Z,99.99
2019-04-27T00:17:49.456Z,99.99
2019-04-27T00:18:45.497Z,99.99
2019-04-27T00:19:44.683Z,99.99
2019-04-27T00:20:44.676Z,99.99
2019-04-27T00:21:44.676Z,99.99
2019-04-27T00:22:44.673Z,99.99
2019-04-27T00:23:44.646Z,99.99
2019-04-27T00:24:44.626Z,99.99
2019-04-27T00:25:44.618Z,99.99
2019-04-27T00:26:45.521Z,99.99
2019-04-27T00:27:44.628Z,99.99
2019-04-27T00:28:44.605Z,99.99
2019-04-27T00:29:44.580Z,99.99
2019-04-27T00:30:44.574Z,99.99
2019-04-27T00:31:44.554Z,99.99
2019-04-27T00:32:44.540Z,99.99
2019-04-27T00:33:44.550Z,99.99
2019-04-27T00:34:44.551Z,99.99
2019-04-27T00:35:51.337Z,99.99
2019-04-27T00:39:06.137Z,99.99
2019-04-27T00:40:06.100Z,99.99
2019-04-27T00:42:33.344Z,99.99
2019-04-27T00:43:17.407Z,99.99
2019-04-27T00:44:17.403Z,99.99
2019-04-27T00:45:17.391Z,99.99
2019-04-27T00:46:17.359Z,99.99
2019-04-27T00:47:17.354Z,99.99
2019-04-27T00:48:17.418Z,99.99
2019-04-27T00:49:20.105Z,99.99
2019-04-27T00:50:17.315Z,99.99
2019-04-27T00:51:17.313Z,99.99
2019-04-27T00:52:17.297Z,99.99
2019-04-27T00:53:17.304Z,99.99
2019-04-27T00:54:17.327Z,99.99
2019-04-27T00:55:17.262Z,99.99
2019-04-27T00:56:17.262Z,99.99
2019-04-27T00:57:17.254Z,99.99
2019-04-27T00:58:17.251Z,99.99
2019-04-27T00:59:17.220Z,99.99
2019-04-27T01:00:17.241Z,99.99
2019-04-27T01:01:17.250Z,99.99
2019-04-27T01:02:17.186Z,99.99
2019-04-27T01:03:17.188Z,99.99
2019-04-27T01:04:17.168Z,99.99
2019-04-27T01:05:17.156Z,99.99
2019-04-27T01:06:17.158Z,99.99
2019-04-27T01:07:17.172Z,99.99
2019-04-27T01:08:17.168Z,99.99
2019-04-27T01:09:17.115Z,99.99
2019-04-27T01:10:17.103Z,99.99
2019-04-27T01:11:17.092Z,99.99
2019-04-27T01:12:17.090Z,99.99
2019-04-27T01:13:17.071Z,99.99
2019-04-27T01:14:17.072Z,99.99
2019-04-27T01:15:17.053Z,99.99
2019-04-27T01:16:21.569Z,99.99
2019-04-27T01:17:18.923Z,99.99
2019-04-27T01:18:17.016Z,99.99
2019-04-27T01:19:18.964Z,99.99
2019-04-27T01:20:18.540Z,99.99
2019-04-27T01:21:17.004Z,99.99
2019-04-27T01:22:18.776Z,99.99
2019-04-27T01:23:16.963Z,99.99
2019-04-27T01:24:18.790Z,99.99
2019-04-27T01:25:18.794Z,99.99
2019-04-27T01:26:18.498Z,99.99
2019-04-27T01:27:16.931Z,99.99
2019-04-27T01:28:18.615Z,99.99
2019-04-27T01:29:16.925Z,99.99
2019-04-27T01:30:16.891Z,99.99
2019-04-27T01:31:16.879Z,99.99
2019-04-27T01:32:16.889Z,99.99
2019-04-27T01:33:16.857Z,99.99
2019-04-27T01:34:16.888Z,99.99
2019-04-27T01:35:18.621Z,99.99
2019-04-27T01:36:16.827Z,99.99
2019-04-27T01:37:16.817Z,99.99
2019-04-27T01:38:16.811Z,99.99
2019-04-27T01:39:18.614Z,99.99
2019-04-27T01:40:16.802Z,99.99
2019-04-27T01:41:16.771Z,99.99
2019-04-27T01:42:16.808Z,99.99
2019-04-27T01:43:18.604Z,99.99
2019-04-27T01:44:16.741Z,99.99
2019-04-27T01:45:16.748Z,99.99
2019-04-27T01:46:16.711Z,99.99
2019-04-27T01:47:16.715Z,99.99
2019-04-27T01:48:25.114Z,99.99
2019-04-27T01:49:19.256Z,99.99
2019-04-27T01:50:16.719Z,99.99
2019-04-27T01:51:16.657Z,99.99
2019-04-27T01:52:16.647Z,99.99
2019-04-27T01:53:16.707Z,99.99
2019-04-27T01:54:16.628Z,99.99
2019-04-27T01:55:16.631Z,99.99
2019-04-27T01:56:16.604Z,99.99
2019-04-27T01:57:16.598Z,99.99
2019-04-27T01:58:16.615Z,99.99
2019-04-27T01:59:16.579Z,99.99
2019-04-27T02:00:16.611Z,99.99
2019-04-27T02:01:16.560Z,99.99
2019-04-27T02:02:16.577Z,99.99
2019-04-27T02:03:16.531Z,99.99
2019-04-27T02:04:16.517Z,99.99
2019-04-27T02:05:16.516Z,99.99
2019-04-27T02:06:16.522Z,99.99
2019-04-27T02:07:16.492Z,99.99
2019-04-27T02:08:16.484Z,99.99
2019-04-27T02:09:16.512Z,99.99
2019-04-27T02:10:16.452Z,99.99
2019-04-27T02:11:16.457Z,99.99
2019-04-27T02:12:16.487Z,99.99
2019-04-27T02:13:16.425Z,99.99
2019-04-27T02:14:16.410Z,99.99
2019-04-27T02:15:16.405Z,99.99
2019-04-27T02:16:16.409Z,99.99
2019-04-27T02:17:16.381Z,99.99
2019-04-27T02:18:16.383Z,99.99
2019-04-27T02:19:16.358Z,99.99
2019-04-27T02:20:16.346Z,99.99
2019-04-27T02:21:16.387Z,99.99
2019-04-27T02:22:16.323Z,99.99
2019-04-27T02:23:16.314Z,99.99
2019-04-27T02:24:16.318Z,99.99
2019-04-27T02:25:16.304Z,99.99
2019-04-27T02:26:16.314Z,99.99
2019-04-27T02:27:16.269Z,99.99
2019-04-27T02:28:16.271Z,99.99
2019-04-27T02:29:16.249Z,99.99
2019-04-27T02:30:16.271Z,99.99
2019-04-27T02:31:16.233Z,99.99
2019-04-27T02:32:16.238Z,99.99
2019-04-27T02:33:16.206Z,99.99
2019-04-27T02:34:16.213Z,99.99
2019-04-27T02:35:16.186Z,99.99
2019-04-27T02:36:16.206Z,99.99
2019-04-27T02:37:16.178Z,99.99
2019-04-27T02:38:16.149Z,99.99
2019-04-27T02:39:16.136Z,99.99
2019-04-27T02:40:16.144Z,99.99
2019-04-27T02:41:16.126Z,99.99
2019-04-27T02:42:16.141Z,99.99
2019-04-27T02:43:16.104Z,99.99
2019-04-27T02:44:16.084Z,99.99
2019-04-27T02:45:16.091Z,99.99
2019-04-27T02:46:16.091Z,99.99
2019-04-27T02:47:16.073Z,99.99
2019-04-27T02:48:16.046Z,99.99
2019-04-27T02:49:16.034Z,99.99
2019-04-27T02:50:16.023Z,99.99
2019-04-27T02:51:16.013Z,99.99
2019-04-27T02:52:16.036Z,99.99
2019-04-27T02:53:15.990Z,99.99
2019-04-27T02:54:15.987Z,99.99
2019-04-27T02:55:15.970Z,99.99
2019-04-27T02:56:15.980Z,99.99
2019-04-27T02:57:16.104Z,99.99
2019-04-27T02:58:15.955Z,99.99
2019-04-27T02:59:15.932Z,99.99
2019-04-27T03:00:15.922Z,99.99
2019-04-27T03:01:15.953Z,99.99
2019-04-27T03:02:15.907Z,99.99
2019-04-27T03:03:15.895Z,99.99
2019-04-27T03:04:15.874Z,99.99
2019-04-27T03:05:15.851Z,99.99
2019-04-27T03:06:15.840Z,99.99
2019-04-27T03:07:15.847Z,99.99
2019-04-27T03:08:16.000Z,99.99
2019-04-27T03:09:15.821Z,99.99
2019-04-27T03:10:15.835Z,99.99
2019-04-27T03:11:15.787Z,99.99
2019-04-27T03:12:15.788Z,99.99
2019-04-27T03:13:15.796Z,99.99
2019-04-27T03:14:29.677Z,99.99
2019-04-27T03:15:16.747Z,99.99
2019-04-27T03:16:15.756Z,99.99
2019-04-27T03:17:15.725Z,99.99
2019-04-27T03:18:15.798Z,99.99
2019-04-27T03:19:20.856Z,99.99
2019-04-27T03:20:16.691Z,99.99
2019-04-27T03:21:15.680Z,99.99
2019-04-27T03:22:15.710Z,99.99
2019-04-27T03:23:15.667Z,99.99
2019-04-27T03:24:15.687Z,99.99
2019-04-27T03:25:15.801Z,99.99
2019-04-27T03:26:15.637Z,99.99
2019-04-27T03:27:15.639Z,99.99
2019-04-27T03:28:15.621Z,99.99
2019-04-27T03:29:15.604Z,99.99
2019-04-27T03:30:15.614Z,99.99
2019-04-27T03:31:15.611Z,99.99
2019-04-27T03:32:15.568Z,99.99
2019-04-27T03:33:15.565Z,99.99
2019-04-27T03:34:16.654Z,99.99
2019-04-27T03:35:15.547Z,99.99
2019-04-27T03:36:15.541Z,99.99
2019-04-27T03:37:15.516Z,99.99
2019-04-27T03:38:15.539Z,99.99
2019-04-27T03:39:15.511Z,99.99
2019-04-27T03:40:15.476Z,99.99
2019-04-27T03:41:15.473Z,99.99
2019-04-27T03:42:15.488Z,99.99
2019-04-27T03:43:15.471Z,99.99
2019-04-27T03:44:15.460Z,99.99
2019-04-27T03:45:15.446Z,99.99
2019-04-27T03:46:15.420Z,99.99
2019-04-27T03:47:15.441Z,99.99
2019-04-27T03:48:15.412Z,99.99
2019-04-27T03:49:31.834Z,99.99
2019-04-27T03:50:16.408Z,99.99
2019-04-27T03:51:15.357Z,99.99
2019-04-27T03:52:15.349Z,99.99
2019-04-27T03:53:15.341Z,99.99
2019-04-27T03:54:15.353Z,99.99
2019-04-27T03:55:15.339Z,99.99
2019-04-27T03:56:15.307Z,99.99
2019-04-27T03:57:15.318Z,99.99
2019-04-27T03:58:15.293Z,99.99
2019-04-27T03:59:15.277Z,99.99
2019-04-27T04:00:15.287Z,99.99
2019-04-27T04:01:15.326Z,99.99
2019-04-27T04:02:15.247Z,99.99
2019-04-27T04:03:15.236Z,99.99
2019-04-27T04:04:15.216Z,99.99
2019-04-27T04:05:15.231Z,99.99
2019-04-27T04:06:15.208Z,99.99
2019-04-27T04:07:15.192Z,99.99
2019-04-27T04:08:15.241Z,99.99
2019-04-27T04:09:15.173Z,99.99
2019-04-27T04:10:15.191Z,99.99
2019-04-27T04:11:15.139Z,99.99
2019-04-27T04:12:15.145Z,99.99
2019-04-27T04:13:15.128Z,99.99
2019-04-27T04:14:15.108Z,99.99
2019-04-27T04:15:15.106Z,99.99
2019-04-27T04:16:15.111Z,99.99
2019-04-27T04:17:15.244Z,99.99
2019-04-27T04:18:15.066Z,99.99
2019-04-27T04:19:15.062Z,99.99
2019-04-27T04:20:15.043Z,99.99
2019-04-27T04:21:15.044Z,99.99
2019-04-27T04:22:15.081Z,99.99
2019-04-27T04:23:15.023Z,99.99
2019-04-27T04:24:15.030Z,99.99
2019-04-27T04:25:14.988Z,99.99
2019-04-27T04:26:15.014Z,99.99
2019-04-27T04:27:14.969Z,99.99
2019-04-27T04:28:14.956Z,99.99
2019-04-27T04:29:14.961Z,99.99
2019-04-27T04:30:15.004Z,99.99
2019-04-27T04:31:14.939Z,99.99
2019-04-27T04:32:14.935Z,99.99
2019-04-27T04:33:14.909Z,99.99
2019-04-27T04:34:14.896Z,99.99
2019-04-27T04:35:14.891Z,99.99
2019-04-27T04:36:14.884Z,99.99
2019-04-27T04:37:14.885Z,99.99
2019-04-27T04:38:14.859Z,99.99
2019-04-27T04:39:14.864Z,99.99
2019-04-27T04:40:14.843Z,99.99
2019-04-27T04:41:14.842Z,99.99
2019-04-27T04:42:14.805Z,99.99
2019-04-27T04:43:14.797Z,99.99
2019-04-27T04:44:14.806Z,99.99
2019-04-27T04:45:14.793Z,99.99
2019-04-27T04:46:14.793Z,99.99
2019-04-27T04:47:14.762Z,99.99
2019-04-27T04:48:14.751Z,99.99
2019-04-27T04:49:14.727Z,99.99
2019-04-27T04:50:15.489Z,99.99
2019-04-27T04:51:14.708Z,99.99
2019-04-27T04:52:14.712Z,99.99
2019-04-27T04:53:14.708Z,99.99
2019-04-27T04:54:14.678Z,99.99
2019-04-27T04:55:14.665Z,99.99
2019-04-27T04:56:14.653Z,99.99
2019-04-27T04:57:14.651Z,99.99
2019-04-27T04:58:14.631Z,99.99
2019-04-27T04:59:14.631Z,99.99
2019-04-27T05:00:14.612Z,99.99
2019-04-27T05:01:14.604Z,99.99
2019-04-27T05:02:14.609Z,99.99
2019-04-27T05:03:14.576Z,99.99
2019-04-27T05:04:14.562Z,99.99
2019-04-27T05:05:14.563Z,99.99
2019-04-27T05:06:14.548Z,99.99
2019-04-27T05:07:14.545Z,99.99
2019-04-27T05:08:14.547Z,99.99
2019-04-27T05:09:14.513Z,99.99
2019-04-27T05:10:14.503Z,99.99
2019-04-27T05:11:14.498Z,99.99
2019-04-27T05:12:14.503Z,99.99
2019-04-27T05:13:14.465Z,99.99
2019-04-27T05:14:14.456Z,99.99
2019-04-27T05:15:14.487Z,99.99
2019-04-27T05:16:14.436Z,99.99
2019-04-27T05:17:14.438Z,99.99
2019-04-27T05:18:14.451Z,99.99
2019-04-27T05:19:14.401Z,99.99
2019-04-27T05:20:22.585Z,99.99
2019-04-27T05:21:15.430Z,99.99
2019-04-27T05:22:14.409Z,99.99
2019-04-27T05:23:14.370Z,99.99
2019-04-27T05:24:14.352Z,99.99
2019-04-27T05:25:14.339Z,99.99
2019-04-27T05:26:14.325Z,99.99
2019-04-27T05:27:14.342Z,99.99
2019-04-27T05:28:14.322Z,99.99
2019-04-27T05:29:14.300Z,99.99
2019-04-27T05:30:14.288Z,99.99
2019-04-27T05:31:14.291Z,99.99
2019-04-27T05:32:14.262Z,99.99
2019-04-27T05:33:14.266Z,99.99
2019-04-27T05:34:14.244Z,99.99
2019-04-27T05:35:14.357Z,99.99
2019-04-27T05:36:14.226Z,99.99
2019-04-27T05:37:14.212Z,99.99
2019-04-27T05:38:14.200Z,99.99
2019-04-27T05:39:18.194Z,99.99
2019-04-27T05:40:15.173Z,99.99
2019-04-27T05:41:14.166Z,99.99
2019-04-27T05:42:17.021Z,99.99
2019-04-27T05:43:15.154Z,99.99
2019-04-27T05:44:14.178Z,99.99
2019-04-27T05:45:15.441Z,99.99
2019-04-27T05:46:15.104Z,99.99
2019-04-27T05:47:14.104Z,99.99
2019-04-27T05:48:14.102Z,99.99
2019-04-27T05:49:14.069Z,99.99
2019-04-27T05:50:20.140Z,99.99
2019-04-27T05:51:15.058Z,99.99
2019-04-27T05:52:14.628Z,99.99
2019-04-27T05:53:14.106Z,99.99
2019-04-27T05:54:14.016Z,99.99
2019-04-27T05:55:14.007Z,99.99
2019-04-27T05:56:13.999Z,99.99
2019-04-27T05:57:13.989Z,99.99
2019-04-27T05:58:14.011Z,99.99
2019-04-27T05:59:14.809Z,99.99
2019-04-27T06:00:13.964Z,99.99
2019-04-27T06:01:13.958Z,99.99
2019-04-27T06:02:13.935Z,99.99
2019-04-27T06:03:13.943Z,99.99
2019-04-27T06:04:13.913Z,99.99
2019-04-27T06:05:13.905Z,99.99
2019-04-27T06:06:13.933Z,99.99
2019-04-27T06:07:13.886Z,99.99
2019-04-27T06:08:13.891Z,99.99
2019-04-27T06:09:13.854Z,99.99
2019-04-27T06:10:13.857Z,99.99
2019-04-27T06:11:13.861Z,99.99
2019-04-27T06:12:13.821Z,99.99
2019-04-27T06:13:13.848Z,99.99
2019-04-27T06:14:13.804Z,99.99
2019-04-27T06:15:13.789Z,99.99
2019-04-27T06:16:13.818Z,99.99
2019-04-27T06:17:13.777Z,99.99
2019-04-27T06:18:13.765Z,99.99
2019-04-27T06:19:13.764Z,99.99
2019-04-27T06:20:13.744Z,99.99
2019-04-27T06:21:13.802Z,99.99
2019-04-27T06:22:13.715Z,99.99
2019-04-27T06:23:13.705Z,99.99
2019-04-27T06:24:13.710Z,99.99
2019-04-27T06:25:13.702Z,99.99
2019-04-27T06:26:13.710Z,99.99
2019-04-27T06:27:13.666Z,99.99
2019-04-27T06:28:13.651Z,99.99
2019-04-27T06:29:13.644Z,99.99
2019-04-27T06:30:13.623Z,99.99
2019-04-27T06:31:13.613Z,99.99
2019-04-27T06:32:13.601Z,99.99
2019-04-27T06:33:13.591Z,99.99
2019-04-27T06:34:13.594Z,99.99
2019-04-27T06:35:13.615Z,99.99
2019-04-27T06:36:13.557Z,99.99
2019-04-27T06:37:13.556Z,99.99
2019-04-27T06:38:13.538Z,99.99
2019-04-27T06:39:13.533Z,99.99
2019-04-27T06:40:13.523Z,99.99
2019-04-27T06:41:13.502Z,99.99
2019-04-27T06:42:18.438Z,99.99
2019-04-27T06:43:14.482Z,99.99
2019-04-27T06:44:13.481Z,99.99
2019-04-27T06:45:13.463Z,99.99
2019-04-27T06:46:13.452Z,99.99
2019-04-27T06:47:13.451Z,99.99
2019-04-27T06:48:13.429Z,99.99
2019-04-27T06:49:13.438Z,99.99
2019-04-27T06:50:13.452Z,99.99
2019-04-27T06:51:13.392Z,99.99
2019-04-27T06:52:13.380Z,98.21
2019-04-27T06:53:13.398Z,99.99
2019-04-27T06:54:13.376Z,99.99
2019-04-27T06:55:13.355Z,99.99
2019-04-27T06:56:13.340Z,99.99
2019-04-27T06:57:13.333Z,99.99
2019-04-27T06:58:13.316Z,99.22
2019-04-27T06:59:13.341Z,99.99
2019-04-27T07:00:13.306Z,99.99
2019-04-27T07:01:13.286Z,99.99
2019-04-27T07:02:13.286Z,99.99
2019-04-27T07:03:13.264Z,99.99
2019-04-27T07:04:13.275Z,99.28
2019-04-27T07:05:13.241Z,99.53
2019-04-27T07:06:13.267Z,99.99
2019-04-27T07:07:13.219Z,99.99
2019-04-27T07:08:13.208Z,99.99
2019-04-27T07:09:13.249Z,98.27
2019-04-27T07:10:13.208Z,98.97
2019-04-27T07:11:13.303Z,99.99
2019-04-27T07:12:13.170Z,99.99
2019-04-27T07:13:13.166Z,96.95
2019-04-27T07:14:13.181Z,97.56
2019-04-27T07:15:15.452Z,99.99
2019-04-27T07:16:13.117Z,99.08
2019-04-27T07:17:13.109Z,97.35
2019-04-27T07:18:13.187Z,97.50
2019-04-27T07:19:13.083Z,97.30
2019-04-27T07:20:13.115Z,99.53
2019-04-27T07:21:18.938Z,99.53
2019-04-27T07:22:14.055Z,99.33
2019-04-27T07:23:13.045Z,99.02
2019-04-27T07:24:13.103Z,99.99
2019-04-27T07:25:13.048Z,98.97
2019-04-27T07:26:13.010Z,99.99
2019-04-27T07:27:12.995Z,99.99
2019-04-27T07:28:13.053Z,99.24
2019-04-27T07:29:12.997Z,99.99
2019-04-27T07:30:13.001Z,98.52
2019-04-27T07:31:12.956Z,99.33
2019-04-27T07:32:12.947Z,98.83
2019-04-27T07:33:12.937Z,98.79
2019-04-27T07:34:12.956Z,96.75
2019-04-27T07:35:12.992Z,95.94
2019-04-27T07:36:12.950Z,97.06
2019-04-27T07:37:12.890Z,96.75
2019-04-27T07:38:12.953Z,98.23
2019-04-27T07:39:12.867Z,98.03
2019-04-27T07:40:12.874Z,98.84
2019-04-27T07:41:12.900Z,94.58
2019-04-27T07:42:12.844Z,96.56
2019-04-27T07:43:12.834Z,97.07
2019-04-27T07:44:12.828Z,95.25
2019-04-27T07:45:12.822Z,95.95
2019-04-27T07:46:12.827Z,94.49
2019-04-27T07:47:12.785Z,93.18
2019-04-27T07:48:12.778Z,96.72
2019-04-27T07:49:12.758Z,93.99
2019-04-27T07:50:12.763Z,97.08
2019-04-27T07:51:12.822Z,94.24
2019-04-27T07:52:12.740Z,92.72
2019-04-27T07:53:12.736Z,92.12
2019-04-27T07:54:12.702Z,94.04
2019-04-27T07:55:12.715Z,96.12
2019-04-27T07:56:12.680Z,93.13
2019-04-27T07:57:12.682Z,94.30
2019-04-27T07:58:12.698Z,94.30
2019-04-27T07:59:12.646Z,89.85
2019-04-27T08:00:12.652Z,90.16
2019-04-27T08:01:12.625Z,90.62
2019-04-27T08:02:12.616Z,91.89
2019-04-27T08:03:12.616Z,94.62
2019-04-27T08:04:12.598Z,93.91
2019-04-27T08:05:12.608Z,90.23
2019-04-27T08:06:12.606Z,90.43
2019-04-27T08:07:12.570Z,91.34
2019-04-27T08:08:12.547Z,86.49
2019-04-27T08:09:12.613Z,88.81
2019-04-27T08:10:12.572Z,88.21
2019-04-27T08:11:12.516Z,88.21
2019-04-27T08:12:12.514Z,88.57
2019-04-27T08:13:12.495Z,89.07
2019-04-27T08:14:12.505Z,88.47
2019-04-27T08:15:12.525Z,90.19
2019-04-27T08:16:12.469Z,87.56
2019-04-27T08:17:12.457Z,86.75
2019-04-27T08:18:12.447Z,87.12
2019-04-27T08:19:12.436Z,88.02
2019-04-27T08:20:12.449Z,87.21
2019-04-27T08:21:12.408Z,88.53
2019-04-27T08:22:12.398Z,86.07
2019-04-27T08:23:12.390Z,90.81
2019-04-27T08:24:12.389Z,87.48
2019-04-27T08:25:12.383Z,87.88
2019-04-27T08:26:12.405Z,88.45
2019-04-27T08:27:12.344Z,85.05
2019-04-27T08:28:12.352Z,86.36
2019-04-27T08:29:12.328Z,86.67
2019-04-27T08:30:12.318Z,88.39
2019-04-27T08:31:12.326Z,86.77
2019-04-27T08:32:12.282Z,87.27
2019-04-27T08:33:12.279Z,87.21
2019-04-27T08:34:12.279Z,88.89
2019-04-27T08:35:12.255Z,83.78
2019-04-27T08:36:12.296Z,87.52
2019-04-27T08:37:12.239Z,87.12
2019-04-27T08:38:12.220Z,86.95
2019-04-27T08:39:12.210Z,87.66
2019-04-27T08:40:12.199Z,85.14
2019-04-27T08:41:12.208Z,87.76
2019-04-27T08:42:12.177Z,85.24
2019-04-27T08:43:12.171Z,87.36
2019-04-27T08:44:12.155Z,86.85
2019-04-27T08:45:12.205Z,85.44
2019-04-27T08:46:12.156Z,89.28
2019-04-27T08:47:12.147Z,88.67
2019-04-27T08:48:12.117Z,87.56
2019-04-27T08:49:12.111Z,87.56
2019-04-27T08:50:12.100Z,87.86
2019-04-27T08:51:12.122Z,87.76
2019-04-27T08:52:12.067Z,87.52
2019-04-27T08:53:12.070Z,86.61
2019-04-27T08:54:12.045Z,86.00
2019-04-27T08:55:12.031Z,86.67
2019-04-27T08:56:12.041Z,86.63
2019-04-27T08:57:12.012Z,87.63
2019-04-27T08:58:12.016Z,88.60
2019-04-27T08:59:12.014Z,84.88
2019-04-27T09:00:11.979Z,84.47
2019-04-27T09:01:11.965Z,83.52
2019-04-27T09:02:11.959Z,85.74
2019-04-27T09:03:11.967Z,82.07
2019-04-27T09:04:11.974Z,78.96
2019-04-27T09:05:11.925Z,78.96
2019-04-27T09:06:11.915Z,83.34
2019-04-27T09:07:11.941Z,80.73
2019-04-27T09:08:11.903Z,79.82
2019-04-27T09:09:11.877Z,81.49
2019-04-27T09:10:11.906Z,78.27
2019-04-27T09:11:11.873Z,79.74
2019-04-27T09:12:11.875Z,79.94
2019-04-27T09:13:11.887Z,82.12
2019-04-27T09:14:11.825Z,77.20
2019-04-27T09:15:11.817Z,77.80
2019-04-27T09:16:11.805Z,78.50
2019-04-27T09:17:11.794Z,79.17
2019-04-27T09:18:11.780Z,79.47
2019-04-27T09:19:11.836Z,76.72
2019-04-27T09:20:11.759Z,74.24
2019-04-27T09:21:11.761Z,75.65
2019-04-27T09:22:16.149Z,77.26
2019-04-27T09:23:11.733Z,75.05
2019-04-27T09:24:11.768Z,77.16
2019-04-27T09:25:11.708Z,73.74
2019-04-27T09:26:11.720Z,75.55
2019-04-27T09:27:11.696Z,74.44
2019-04-27T09:28:11.714Z,72.94
2019-04-27T09:29:11.694Z,75.05
2019-04-27T09:30:11.761Z,77.26
2019-04-27T09:31:11.655Z,76.25
2019-04-27T09:32:11.753Z,73.44
2019-04-27T09:33:11.623Z,77.56
2019-04-27T09:34:12.767Z,73.84
2019-04-27T09:35:11.626Z,76.05
2019-04-27T09:36:11.599Z,73.64
2019-04-27T09:37:11.577Z,77.96
2019-04-27T09:38:11.576Z,77.16
2019-04-27T09:39:11.757Z,77.66
2019-04-27T09:40:11.608Z,68.92
2019-04-27T09:41:11.531Z,71.83
2019-04-27T09:42:11.524Z,71.13
2019-04-27T09:43:11.514Z,71.33
2019-04-27T09:44:11.501Z,68.02
2019-04-27T09:45:11.519Z,71.73
2019-04-27T09:46:11.511Z,72.64
2019-04-27T09:47:11.503Z,71.30
2019-04-27T09:48:11.451Z,70.70
2019-04-27T09:49:12.207Z,75.71
2019-04-27T09:50:11.429Z,73.37
2019-04-27T09:51:11.441Z,67.25
2019-04-27T09:52:23.559Z,68.65
2019-04-27T09:53:12.420Z,73.47
2019-04-27T09:54:11.409Z,67.75
2019-04-27T09:55:11.485Z,71.16
2019-04-27T09:56:11.383Z,68.82
2019-04-27T09:57:11.365Z,71.23
2019-04-27T09:58:11.347Z,69.26
2019-04-27T09:59:11.422Z,70.06
2019-04-27T10:00:11.337Z,69.15
2019-04-27T10:01:11.347Z,68.79
2019-04-27T10:02:11.300Z,68.15
2019-04-27T10:03:11.293Z,66.78
2019-04-27T10:04:11.301Z,67.78
2019-04-27T10:05:11.292Z,67.68
2019-04-27T10:06:11.263Z,70.50
2019-04-27T10:07:11.274Z,68.59
2019-04-27T10:08:11.243Z,67.51
2019-04-27T10:09:11.311Z,69.22
2019-04-27T10:10:11.280Z,66.71
2019-04-27T10:11:11.207Z,65.57
2019-04-27T10:12:11.210Z,68.88
2019-04-27T10:13:11.199Z,73.71
2019-04-27T10:14:11.173Z,67.08
2019-04-27T10:15:11.211Z,68.76
2019-04-27T10:16:11.159Z,63.23
2019-04-27T10:17:11.157Z,61.93
2019-04-27T10:18:11.134Z,68.42
2019-04-27T10:19:11.126Z,65.21
2019-04-27T10:20:11.113Z,64.01
2019-04-27T10:21:11.146Z,68.62
2019-04-27T10:22:11.152Z,63.98
2019-04-27T10:23:11.080Z,63.37
2019-04-27T10:24:11.080Z,69.56
2019-04-27T10:25:11.057Z,64.48
2019-04-27T10:26:11.051Z,63.87
2019-04-27T10:27:11.191Z,62.54
2019-04-27T10:28:11.025Z,60.53
2019-04-27T10:29:11.013Z,63.04
2019-04-27T10:30:11.008Z,61.71
2019-04-27T10:31:11.025Z,63.48
2019-04-27T10:32:11.010Z,67.19
2019-04-27T10:33:10.969Z,61.38
2019-04-27T10:34:10.966Z,64.42
2019-04-27T10:35:10.991Z,62.08
2019-04-27T10:36:10.944Z,62.75
2019-04-27T10:37:10.929Z,62.45
2019-04-27T10:38:10.935Z,65.36
2019-04-27T10:39:13.230Z,66.42
2019-04-27T10:40:10.893Z,66.32
2019-04-27T10:41:10.891Z,65.33
2019-04-27T10:42:10.874Z,63.29
2019-04-27T10:43:10.875Z,61.29
2019-04-27T10:44:10.850Z,62.59
2019-04-27T10:45:10.850Z,59.19
2019-04-27T10:46:10.824Z,60.39
2019-04-27T10:47:10.819Z,62.89
2019-04-27T10:48:10.827Z,57.69
2019-04-27T10:49:10.794Z,60.49
2019-04-27T10:50:10.786Z,58.99
2019-04-27T10:51:10.782Z,60.57
2019-04-27T10:52:10.767Z,56.07
2019-04-27T10:53:10.769Z,60.59
2019-04-27T10:54:10.762Z,61.69
2019-04-27T10:55:10.731Z,59.30
2019-04-27T10:56:10.726Z,59.66
2019-04-27T10:57:10.770Z,59.30
2019-04-27T10:58:10.722Z,57.89
2019-04-27T10:59:10.688Z,62.46
2019-04-27T11:00:10.693Z,65.03
2019-04-27T11:01:10.662Z,58.34
2019-04-27T11:02:10.662Z,55.62
2019-04-27T11:03:10.675Z,54.59
2019-04-27T11:04:10.652Z,59.55
2019-04-27T11:05:10.631Z,59.15
2019-04-27T11:06:10.616Z,60.82
2019-04-27T11:07:10.606Z,58.03
2019-04-27T11:08:10.632Z,54.53
2019-04-27T11:09:10.603Z,56.93
2019-04-27T11:10:10.569Z,62.98
2019-04-27T11:11:10.557Z,53.61
2019-04-27T11:12:10.552Z,51.82
2019-04-27T11:13:10.553Z,54.01
2019-04-27T11:14:10.618Z,55.33
2019-04-27T11:15:10.526Z,56.21
2019-04-27T11:16:10.507Z,55.41
2019-04-27T11:17:10.684Z,57.17
2019-04-27T11:18:10.491Z,51.62
2019-04-27T11:19:10.487Z,57.37
2019-04-27T11:20:10.500Z,58.17
2019-04-27T11:21:10.452Z,58.04
2019-04-27T11:22:10.445Z,51.57
2019-04-27T11:23:12.367Z,49.80
2019-04-27T11:24:10.479Z,54.49
2019-04-27T11:25:10.411Z,56.57
2019-04-27T11:26:10.402Z,51.00
2019-04-27T11:27:10.412Z,49.88
2019-04-27T11:28:10.376Z,56.32
2019-04-27T11:29:10.360Z,54.31
2019-04-27T11:30:10.374Z,49.61
2019-04-27T11:31:10.343Z,57.43
2019-04-27T11:32:10.362Z,48.22
2019-04-27T11:33:10.326Z,48.00
2019-04-27T11:34:10.318Z,46.00
2019-04-27T11:35:10.321Z,45.30
2019-04-27T11:36:10.300Z,46.97
2019-04-27T11:37:10.279Z,48.30
2019-04-27T11:38:10.274Z,46.02
2019-04-27T11:39:10.276Z,42.55
2019-04-27T11:40:10.267Z,44.15
2019-04-27T11:41:10.287Z,51.07
2019-04-27T11:42:10.238Z,45.70
2019-04-27T11:43:10.234Z,48.25
2019-04-27T11:44:10.203Z,47.34
2019-04-27T11:45:10.248Z,47.12
2019-04-27T11:46:10.188Z,50.48
2019-04-27T11:47:10.173Z,47.52
2019-04-27T11:48:10.178Z,49.96
2019-04-27T11:49:10.156Z,45.51
2019-04-27T11:50:10.138Z,44.67
2019-04-27T11:51:11.054Z,45.00
2019-04-27T11:52:10.130Z,46.69
2019-04-27T11:53:19.860Z,47.98
2019-04-27T11:54:11.110Z,46.59
2019-04-27T11:55:10.084Z,46.17
2019-04-27T11:56:10.090Z,44.59
2019-04-27T11:57:10.079Z,49.81
2019-04-27T11:58:10.057Z,50.11
2019-04-27T11:59:10.041Z,42.76
2019-04-27T12:00:10.042Z,49.29
2019-04-27T12:01:10.077Z,44.05
2019-04-27T12:02:10.007Z,42.78
2019-04-27T12:03:10.056Z,43.95
2019-04-27T12:04:09.985Z,42.66
2019-04-27T12:05:09.977Z,39.50
2019-04-27T12:06:09.967Z,46.42
2019-04-27T12:07:09.972Z,44.32
2019-04-27T12:08:09.946Z,40.98
2019-04-27T12:09:09.953Z,47.19
2019-04-27T12:10:09.932Z,42.62
2019-04-27T12:11:09.911Z,40.03
2019-04-27T12:12:16.623Z,44.68
2019-04-27T12:13:10.917Z,40.80
2019-04-27T12:14:09.924Z,49.37
2019-04-27T12:15:09.877Z,39.11
2019-04-27T12:16:09.863Z,42.36
2019-04-27T12:17:09.869Z,43.13
2019-04-27T12:18:09.872Z,42.85
2019-04-27T12:19:09.829Z,43.73
2019-04-27T12:20:09.823Z,42.14
2019-04-27T12:21:09.806Z,44.51
2019-04-27T12:22:09.810Z,45.62
2019-04-27T12:23:09.788Z,43.92
2019-04-27T12:24:09.795Z,38.43
2019-04-27T12:25:09.785Z,44.46
2019-04-27T12:26:09.774Z,41.08
2019-04-27T12:27:09.832Z,40.90
2019-04-27T12:28:09.758Z,40.94
2019-04-27T12:29:09.732Z,45.00
2019-04-27T12:30:09.748Z,44.10
2019-04-27T12:31:09.711Z,42.21
2019-04-27T12:32:09.708Z,43.37
2019-04-27T12:33:09.689Z,44.73
2019-04-27T12:34:09.684Z,43.94
2019-04-27T12:35:09.666Z,43.17
2019-04-27T12:36:09.659Z,38.84
2019-04-27T12:37:09.698Z,41.04
2019-04-27T12:38:09.632Z,40.94
2019-04-27T12:39:09.624Z,44.90
2019-04-27T12:40:09.609Z,44.10
2019-04-27T12:41:09.597Z,42.52
2019-04-27T12:42:09.618Z,45.37
2019-04-27T12:43:09.578Z,42.29
2019-04-27T12:44:09.569Z,44.06
2019-04-27T12:45:09.556Z,42.70
2019-04-27T12:46:09.545Z,41.04
2019-04-27T12:47:09.555Z,44.15
2019-04-27T12:48:09.530Z,44.05
2019-04-27T12:49:09.532Z,45.43
2019-04-27T12:50:09.504Z,41.22
2019-04-27T12:51:09.495Z,44.19
2019-04-27T12:52:09.512Z,45.38
2019-04-27T12:53:09.469Z,45.57
2019-04-27T12:54:09.460Z,43.49
2019-04-27T12:55:09.451Z,43.71
2019-04-27T12:56:09.435Z,49.27